createdAt,value
2023-12-21T00:00:59.684Z,12.80
2023-12-21T00:03:28.160Z,12.70
2023-12-21T00:05:56.849Z,12.70
2023-12-21T00:08:25.651Z,12.70
2023-12-21T00:10:54.309Z,13.10
2023-12-21T00:13:24.846Z,13.00
2023-12-21T00:15:53.544Z,13.00
2023-12-21T00:18:22.159Z,13.10
2023-12-21T00:20:50.450Z,13.20
2023-12-21T00:23:19.000Z,13.20
2023-12-21T00:25:47.398Z,13.30
2023-12-21T00:28:16.158Z,13.10
2023-12-21T00:30:46.110Z,13.10
2023-12-21T00:33:14.661Z,13.40
2023-12-21T00:35:43.351Z,13.70
2023-12-21T00:38:12.260Z,13.50
2023-12-21T00:40:40.756Z,13.20
2023-12-21T00:43:09.394Z,12.70
2023-12-21T00:45:37.911Z,12.80
2023-12-21T00:48:08.898Z,12.60
2023-12-21T00:50:37.348Z,12.50
2023-12-21T00:53:05.923Z,12.90
2023-12-21T00:55:34.571Z,12.70
2023-12-21T00:58:03.164Z,12.60
2023-12-21T01:00:31.687Z,12.80
2023-12-21T01:03:00.797Z,12.80
2023-12-21T01:05:30.434Z,12.80
2023-12-21T01:07:59.431Z,13.00
2023-12-21T01:10:28.424Z,13.00
2023-12-21T01:12:57.201Z,12.70
2023-12-21T01:15:25.710Z,13.00
2023-12-21T01:17:54.537Z,13.20
2023-12-21T01:20:23.401Z,13.00
2023-12-21T01:22:53.155Z,13.10
2023-12-21T01:25:21.656Z,12.70
2023-12-21T01:27:50.397Z,13.10
2023-12-21T01:30:19.137Z,13.10
2023-12-21T01:32:47.809Z,13.20
2023-12-21T01:35:16.403Z,13.20
2023-12-21T01:37:45.105Z,13.30
2023-12-21T01:40:15.944Z,12.50
2023-12-21T01:42:44.854Z,12.60
2023-12-21T01:45:14.392Z,12.70
2023-12-21T01:47:43.324Z,12.80
2023-12-21T01:50:13.494Z,13.00
2023-12-21T01:52:42.759Z,12.90
2023-12-21T01:55:12.154Z,13.10
2023-12-21T01:57:42.806Z,12.80
2023-12-21T02:00:13.509Z,12.90
2023-12-21T02:02:42.065Z,13.40
2023-12-21T02:05:11.263Z,13.40
2023-12-21T02:07:39.854Z,13.00
2023-12-21T02:10:08.907Z,12.90
2023-12-21T02:12:37.493Z,13.00
2023-12-21T02:15:09.420Z,12.80
2023-12-21T02:17:39.865Z,13.00
2023-12-21T02:20:09.684Z,13.40
2023-12-21T02:22:41.637Z,13.60
2023-12-21T02:25:11.626Z,13.20
2023-12-21T02:27:40.081Z,13.20
2023-12-21T02:30:09.652Z,13.40
2023-12-21T02:32:38.782Z,12.40
2023-12-21T02:35:08.714Z,12.60
2023-12-21T02:37:37.363Z,12.50
2023-12-21T02:40:06.603Z,12.70
2023-12-21T02:42:36.560Z,13.00
2023-12-21T02:45:05.141Z,12.70
2023-12-21T02:47:33.586Z,13.00
2023-12-21T02:50:03.455Z,13.10
2023-12-21T02:52:31.941Z,13.60
2023-12-21T02:55:00.666Z,13.10
2023-12-21T02:57:29.148Z,12.70
2023-12-21T02:59:58.925Z,13.00
2023-12-21T03:02:27.713Z,13.10
2023-12-21T03:04:56.177Z,13.40
2023-12-21T03:07:24.868Z,13.50
2023-12-21T03:09:53.812Z,13.30
2023-12-21T03:12:22.218Z,13.80
2023-12-21T03:14:50.688Z,13.80
2023-12-21T03:17:20.938Z,12.90
2023-12-21T03:19:49.751Z,13.60
2023-12-21T03:22:18.453Z,13.40
2023-12-21T03:24:47.318Z,13.40
2023-12-21T03:27:16.490Z,13.70
2023-12-21T03:29:45.364Z,13.60
2023-12-21T03:32:13.778Z,13.50
2023-12-21T03:34:43.512Z,13.50
2023-12-21T03:37:12.042Z,13.40
2023-12-21T03:39:40.475Z,13.60
2023-12-21T03:42:08.999Z,13.50
2023-12-21T03:44:37.602Z,13.20
2023-12-21T03:47:06.324Z,13.40
2023-12-21T03:49:35.090Z,12.80
2023-12-21T03:52:04.880Z,12.80
2023-12-21T03:54:33.363Z,13.00
2023-12-21T03:57:02.146Z,13.10
2023-12-21T03:59:30.951Z,13.30
2023-12-21T04:01:59.824Z,12.70
2023-12-21T04:04:29.081Z,12.90
2023-12-21T04:06:57.652Z,12.80
2023-12-21T04:09:27.498Z,12.90
2023-12-21T04:11:55.918Z,13.10
2023-12-21T04:14:24.363Z,12.80
2023-12-21T04:16:53.044Z,12.60
2023-12-21T04:19:21.578Z,13.10
2023-12-21T04:21:50.182Z,13.00
2023-12-21T04:24:19.833Z,12.70
2023-12-21T04:26:49.450Z,12.70
2023-12-21T04:29:18.010Z,13.40
2023-12-21T04:31:46.560Z,13.00
2023-12-21T04:34:15.233Z,13.40
2023-12-21T04:36:43.677Z,13.20
2023-12-21T04:39:12.511Z,13.10
2023-12-21T04:41:42.108Z,12.60
2023-12-21T04:44:11.784Z,13.10
2023-12-21T04:46:40.383Z,13.20
2023-12-21T04:49:08.955Z,13.40
2023-12-21T04:51:37.367Z,13.40
2023-12-21T04:54:07.348Z,13.80
2023-12-21T04:56:35.974Z,13.60
2023-12-21T04:59:04.864Z,13.60
2023-12-21T05:01:34.532Z,13.70
2023-12-21T05:04:05.311Z,13.40
2023-12-21T05:06:33.817Z,13.70
2023-12-21T05:09:02.768Z,13.90
2023-12-21T05:11:31.305Z,13.60
2023-12-21T05:13:59.760Z,14.30
2023-12-21T05:16:28.368Z,14.40
2023-12-21T05:18:58.583Z,14.20
2023-12-21T05:21:27.163Z,14.90
2023-12-21T05:23:55.573Z,14.80
2023-12-21T05:26:23.997Z,14.60
2023-12-21T05:28:52.485Z,14.30
2023-12-21T05:31:25.082Z,14.30
2023-12-21T05:33:54.016Z,14.10
2023-12-21T05:36:24.405Z,14.90
2023-12-21T05:38:53.167Z,14.80
2023-12-21T05:41:21.594Z,14.90
2023-12-21T05:43:49.999Z,14.80
2023-12-21T05:46:18.596Z,15.00
2023-12-21T05:48:48.475Z,14.80
2023-12-21T05:51:17.082Z,15.20
2023-12-21T05:53:46.650Z,14.90
2023-12-21T05:56:14.976Z,14.90
2023-12-21T05:58:43.880Z,14.90
2023-12-21T06:01:12.553Z,14.80
2023-12-21T06:03:41.502Z,14.70
2023-12-21T06:06:10.125Z,14.40
2023-12-21T06:08:38.723Z,14.40
2023-12-21T06:11:08.845Z,14.80
2023-12-21T06:13:37.650Z,14.50
2023-12-21T06:16:12.754Z,14.70
2023-12-21T06:18:41.354Z,14.50
2023-12-21T06:21:10.045Z,14.50
2023-12-21T06:23:38.789Z,14.90
2023-12-21T06:26:08.759Z,14.70
2023-12-21T06:28:37.528Z,14.90
2023-12-21T06:31:06.921Z,15.00
2023-12-21T06:33:35.739Z,14.80
2023-12-21T06:36:04.483Z,14.10
2023-12-21T06:38:33.243Z,14.30
2023-12-21T06:41:01.731Z,14.50
2023-12-21T06:43:31.521Z,14.50
2023-12-21T06:46:00.284Z,14.50
2023-12-21T06:48:28.822Z,14.50
2023-12-21T06:50:57.591Z,14.20
2023-12-21T06:53:26.123Z,15.00
2023-12-21T06:56:07.953Z,14.90
2023-12-21T06:58:44.178Z,14.80
2023-12-21T07:01:12.773Z,15.00
2023-12-21T07:03:41.518Z,14.80
2023-12-21T07:06:12.636Z,14.80
2023-12-21T07:08:41.480Z,14.30
2023-12-21T07:11:10.563Z,14.10
2023-12-21T07:13:39.172Z,14.30
2023-12-21T07:16:09.370Z,14.50
2023-12-21T07:18:38.231Z,14.80
2023-12-21T07:21:07.369Z,14.30
2023-12-21T07:23:35.830Z,14.20
2023-12-21T07:26:04.812Z,14.00
2023-12-21T07:28:34.069Z,13.70
2023-12-21T07:31:02.812Z,14.10
2023-12-21T07:33:32.893Z,13.90
2023-12-21T07:36:02.809Z,14.50
2023-12-21T07:38:31.478Z,15.20
2023-12-21T07:40:59.879Z,15.50
2023-12-21T07:43:28.361Z,15.30
2023-12-21T07:45:57.247Z,14.60
2023-12-21T07:48:25.838Z,14.70
2023-12-21T07:50:55.466Z,14.60
2023-12-21T07:53:23.880Z,14.40
2023-12-21T07:55:52.508Z,14.20
2023-12-21T07:58:21.121Z,14.30
2023-12-21T08:00:49.611Z,14.30
2023-12-21T08:03:18.123Z,14.60
2023-12-21T08:05:46.650Z,14.40
2023-12-21T08:08:16.594Z,15.30
2023-12-21T08:10:45.207Z,14.80
2023-12-21T08:13:14.652Z,15.00
2023-12-21T08:15:43.217Z,15.00
2023-12-21T08:18:14.929Z,15.10
2023-12-21T08:20:44.558Z,14.50
2023-12-21T08:23:13.114Z,14.30
2023-12-21T08:25:42.890Z,14.20
2023-12-21T08:28:11.910Z,13.90
2023-12-21T08:30:42.824Z,14.60
2023-12-21T08:33:11.958Z,14.20
2023-12-21T08:35:40.397Z,13.70
2023-12-21T08:38:10.013Z,14.50
2023-12-21T08:40:38.614Z,14.60
2023-12-21T08:43:08.394Z,14.00
2023-12-21T08:45:37.035Z,13.80
2023-12-21T08:48:06.408Z,14.40
2023-12-21T08:50:34.995Z,14.80
2023-12-21T08:53:04.159Z,14.40
2023-12-21T08:55:32.598Z,13.80
2023-12-21T08:58:01.280Z,14.30
2023-12-21T09:00:31.517Z,14.00
2023-12-21T09:02:59.991Z,13.60
2023-12-21T09:05:28.450Z,13.50
2023-12-21T09:07:57.260Z,13.50
2023-12-21T09:10:26.203Z,13.10
2023-12-21T09:12:54.616Z,13.50
2023-12-21T09:15:23.023Z,13.30
2023-12-21T09:17:54.307Z,13.20
2023-12-21T09:20:23.302Z,13.40
2023-12-21T09:22:52.054Z,13.40
2023-12-21T09:25:20.748Z,13.20
2023-12-21T09:27:49.539Z,13.00
2023-12-21T09:30:20.675Z,13.10
2023-12-21T09:32:50.507Z,13.40
2023-12-21T09:35:21.435Z,13.50
2023-12-21T09:37:51.654Z,13.50
2023-12-21T09:40:20.402Z,13.50
2023-12-21T09:43:01.176Z,13.50
2023-12-21T09:45:33.998Z,13.30
2023-12-21T09:48:02.985Z,13.70
2023-12-21T09:50:33.111Z,14.40
2023-12-21T09:53:03.805Z,13.70
2023-12-21T09:55:33.290Z,13.70
2023-12-21T09:58:02.118Z,13.50
2023-12-21T10:00:32.369Z,13.80
2023-12-21T10:03:00.787Z,13.90
2023-12-21T10:05:29.235Z,14.50
2023-12-21T10:07:59.722Z,14.30
2023-12-21T10:10:28.432Z,14.30
2023-12-21T10:12:57.174Z,14.40
2023-12-21T10:15:26.053Z,14.40
2023-12-21T10:17:54.925Z,14.30
2023-12-21T10:20:25.720Z,14.60
2023-12-21T10:22:54.710Z,14.40
2023-12-21T10:25:25.139Z,14.70
2023-12-21T10:27:56.884Z,14.80
2023-12-21T10:30:26.146Z,14.10
2023-12-21T10:32:57.811Z,14.60
2023-12-21T10:35:28.265Z,14.20
2023-12-21T10:37:57.151Z,14.40
2023-12-21T10:40:28.916Z,14.70
2023-12-21T10:42:57.705Z,14.90
2023-12-21T10:45:33.956Z,14.40
2023-12-21T10:48:08.711Z,14.80
2023-12-21T10:50:38.969Z,13.90
2023-12-21T10:53:11.574Z,14.00
2023-12-21T10:55:43.255Z,14.20
2023-12-21T10:58:13.582Z,14.30
2023-12-21T11:00:44.106Z,13.80
2023-12-21T11:03:18.121Z,13.90
2023-12-21T11:05:47.245Z,14.60
2023-12-21T11:08:15.987Z,14.50
2023-12-21T11:10:47.356Z,14.40
2023-12-21T11:13:15.851Z,13.90
2023-12-21T11:15:45.948Z,14.50
2023-12-21T11:18:20.024Z,14.20
2023-12-21T11:20:55.367Z,13.50
2023-12-21T11:23:25.335Z,14.40
2023-12-21T11:25:58.670Z,13.40
2023-12-21T11:28:29.679Z,13.40
2023-12-21T11:30:58.544Z,14.00
2023-12-21T11:33:31.218Z,13.70
2023-12-21T11:36:00.186Z,13.80
2023-12-21T11:38:46.755Z,13.70
2023-12-21T11:41:18.306Z,14.20
2023-12-21T11:43:57.849Z,14.20
2023-12-21T11:46:27.265Z,14.10
2023-12-21T11:48:56.056Z,13.90
2023-12-21T11:51:24.610Z,14.50
2023-12-21T11:53:53.558Z,14.00
2023-12-21T11:56:23.194Z,14.10
2023-12-21T11:58:53.325Z,14.20
2023-12-21T12:01:27.236Z,14.20
2023-12-21T12:03:56.138Z,13.70
2023-12-21T12:06:29.110Z,14.00
2023-12-21T12:08:58.252Z,13.70
2023-12-21T12:11:28.259Z,13.70
2023-12-21T12:13:59.717Z,14.20
2023-12-21T12:16:28.352Z,14.50
2023-12-21T12:18:57.092Z,14.50
2023-12-21T12:21:25.922Z,14.70
2023-12-21T12:23:54.520Z,14.80
2023-12-21T12:26:23.106Z,14.70
2023-12-21T12:28:54.905Z,15.00
2023-12-21T12:31:23.841Z,15.10
2023-12-21T12:33:52.567Z,14.80
2023-12-21T12:36:21.558Z,14.70
2023-12-21T12:38:51.889Z,14.90
2023-12-21T12:41:21.764Z,14.40
2023-12-21T12:43:50.892Z,14.10
2023-12-21T12:46:22.355Z,14.00
2023-12-21T12:48:51.917Z,14.30
2023-12-21T12:51:23.337Z,13.70
2023-12-21T12:53:53.432Z,13.80
2023-12-21T12:56:21.907Z,13.30
2023-12-21T12:58:58.217Z,13.40
2023-12-21T13:01:30.692Z,13.40
2023-12-21T13:04:00.024Z,13.00
2023-12-21T13:06:30.124Z,13.50
2023-12-21T13:08:59.256Z,13.70
2023-12-21T13:11:27.788Z,14.10
2023-12-21T13:13:56.663Z,14.10
2023-12-21T13:16:25.334Z,13.90
2023-12-21T13:18:55.371Z,13.40
2023-12-21T13:21:24.043Z,13.20
2023-12-21T13:23:52.525Z,13.00
2023-12-21T13:26:21.373Z,12.90
2023-12-21T13:28:50.939Z,13.00
2023-12-21T13:31:19.433Z,13.20
2023-12-21T13:33:48.758Z,13.30
2023-12-21T13:36:18.576Z,12.80
2023-12-21T13:38:47.843Z,13.00
2023-12-21T13:41:16.488Z,13.10
2023-12-21T13:43:47.631Z,13.00
2023-12-21T13:46:18.985Z,12.80
2023-12-21T13:48:47.876Z,12.70
2023-12-21T13:51:17.503Z,12.60
2023-12-21T13:53:45.915Z,12.40
2023-12-21T13:56:14.633Z,12.70
2023-12-21T13:58:43.489Z,12.70
2023-12-21T14:01:12.327Z,12.80
2023-12-21T14:03:40.878Z,12.50
2023-12-21T14:06:09.516Z,12.60
2023-12-21T14:08:39.134Z,12.60
2023-12-21T14:11:07.473Z,12.40
2023-12-21T14:13:36.189Z,12.60
2023-12-21T14:16:04.844Z,12.50
2023-12-21T14:18:34.254Z,12.50
2023-12-21T14:21:03.441Z,12.60
2023-12-21T14:23:31.965Z,12.40
2023-12-21T14:26:02.291Z,12.40
2023-12-21T14:28:39.174Z,12.80
2023-12-21T14:31:12.253Z,12.80
2023-12-21T14:33:41.187Z,12.70
2023-12-21T14:36:10.033Z,12.70
2023-12-21T14:38:38.699Z,12.60
2023-12-21T14:41:08.322Z,12.60
2023-12-21T14:43:36.835Z,12.80
2023-12-21T14:46:05.795Z,12.90
2023-12-21T14:48:34.597Z,12.80
2023-12-21T14:51:04.962Z,12.70
2023-12-21T14:53:34.352Z,12.80
2023-12-21T14:56:03.189Z,12.70
2023-12-21T14:58:32.967Z,12.80
2023-12-21T15:01:02.464Z,12.70
2023-12-21T15:03:32.054Z,12.80
2023-12-21T15:06:00.760Z,12.60
2023-12-21T15:08:30.666Z,12.60
2023-12-21T15:10:59.459Z,12.70
2023-12-21T15:13:28.368Z,13.00
2023-12-21T15:15:58.055Z,12.80
2023-12-21T15:18:26.988Z,12.80
2023-12-21T15:20:55.474Z,12.70
2023-12-21T15:23:24.136Z,12.60
2023-12-21T15:25:53.533Z,12.50
2023-12-21T15:28:22.117Z,12.60
2023-12-21T15:30:50.473Z,12.80
2023-12-21T15:33:20.689Z,12.70
2023-12-21T15:35:49.417Z,12.70
2023-12-21T15:38:18.718Z,12.70
2023-12-21T15:40:47.372Z,12.60
2023-12-21T15:43:15.726Z,12.50
2023-12-21T15:45:45.040Z,12.60
2023-12-21T15:48:13.816Z,12.80
2023-12-21T15:50:47.541Z,12.60
2023-12-21T15:53:16.075Z,12.70
2023-12-21T15:55:44.674Z,12.70
2023-12-21T15:58:13.561Z,12.60
2023-12-21T16:00:42.415Z,12.60
2023-12-21T16:03:11.081Z,12.60
2023-12-21T16:05:39.511Z,12.60
2023-12-21T16:08:10.493Z,12.60
2023-12-21T16:10:38.993Z,12.60
2023-12-21T16:13:07.564Z,12.80
2023-12-21T16:15:36.147Z,12.60
2023-12-21T16:18:05.197Z,12.60
2023-12-21T16:20:33.690Z,12.80
2023-12-21T16:23:03.476Z,13.00
2023-12-21T16:25:33.445Z,12.80
2023-12-21T16:28:01.926Z,12.90
2023-12-21T16:30:30.782Z,12.70
2023-12-21T16:32:59.606Z,12.90
2023-12-21T16:35:28.114Z,12.90
2023-12-21T16:37:56.859Z,12.50
2023-12-21T16:40:25.766Z,12.60
2023-12-21T16:42:55.516Z,12.50
2023-12-21T16:45:23.981Z,12.70
2023-12-21T16:47:52.352Z,12.50
2023-12-21T16:50:20.855Z,12.40
2023-12-21T16:52:49.402Z,12.40
2023-12-21T16:55:18.047Z,12.50
2023-12-21T16:57:46.508Z,12.60
2023-12-21T17:00:17.091Z,12.70
2023-12-21T17:02:45.824Z,13.30
2023-12-21T17:05:14.838Z,12.80
2023-12-21T17:07:45.459Z,12.70
2023-12-21T17:10:14.978Z,12.60
2023-12-21T17:12:47.411Z,12.80
2023-12-21T17:15:17.359Z,12.60
2023-12-21T17:17:46.151Z,12.50
2023-12-21T17:20:15.376Z,12.50
2023-12-21T17:22:43.936Z,12.50
2023-12-21T17:25:12.466Z,12.60
2023-12-21T17:27:41.015Z,12.50
2023-12-21T17:30:10.070Z,12.50
2023-12-21T17:32:40.266Z,12.50
2023-12-21T17:35:09.968Z,12.40
2023-12-21T17:37:38.495Z,12.70
2023-12-21T17:40:10.851Z,12.60
2023-12-21T17:42:39.795Z,12.50
2023-12-21T17:45:10.367Z,12.50
2023-12-21T17:47:40.834Z,12.60
2023-12-21T17:50:10.650Z,12.50
2023-12-21T17:52:39.495Z,12.50
2023-12-21T17:55:08.468Z,12.60
2023-12-21T17:57:36.822Z,12.50
2023-12-21T18:00:06.003Z,12.70
2023-12-21T18:02:34.506Z,12.50
2023-12-21T18:05:05.546Z,12.40
2023-12-21T18:07:34.062Z,12.40
2023-12-21T18:10:02.987Z,12.40
2023-12-21T18:12:31.629Z,12.40
2023-12-21T18:15:00.365Z,12.50
2023-12-21T18:17:28.849Z,12.40
2023-12-21T18:19:57.453Z,12.50
2023-12-21T18:22:27.193Z,12.40
2023-12-21T18:24:57.704Z,12.50
2023-12-21T18:27:26.141Z,12.40
2023-12-21T18:29:58.235Z,12.50
2023-12-21T18:32:26.913Z,12.30
2023-12-21T18:34:55.667Z,12.30
2023-12-21T18:37:24.329Z,12.20
2023-12-21T18:39:54.093Z,12.30
2023-12-21T18:42:22.565Z,12.30
2023-12-21T18:44:51.212Z,12.30
2023-12-21T18:47:19.626Z,12.40
2023-12-21T18:49:48.111Z,12.30
2023-12-21T18:52:16.689Z,12.50
2023-12-21T18:54:45.216Z,12.50
2023-12-21T18:57:17.815Z,12.30
2023-12-21T18:59:46.633Z,12.20
2023-12-21T19:02:16.475Z,12.10
2023-12-21T19:04:45.191Z,12.20
2023-12-21T19:07:13.808Z,12.30
2023-12-21T19:09:42.690Z,12.30
2023-12-21T19:12:11.363Z,12.20
2023-12-21T19:14:44.761Z,12.50
2023-12-21T19:17:13.498Z,12.30
2023-12-21T19:19:42.609Z,12.30
2023-12-21T19:22:11.407Z,12.30
2023-12-21T19:24:40.155Z,12.10
2023-12-21T19:27:08.649Z,11.90
2023-12-21T19:29:37.315Z,11.80
2023-12-21T19:32:08.002Z,11.80
2023-12-21T19:34:36.547Z,11.70
2023-12-21T19:37:05.162Z,11.80
2023-12-21T19:39:33.562Z,11.90
2023-12-21T19:42:01.986Z,12.20
2023-12-21T19:44:30.576Z,12.10
2023-12-21T19:46:58.975Z,12.30
2023-12-21T19:49:29.053Z,12.10
2023-12-21T19:51:57.532Z,11.90
2023-12-21T19:54:26.019Z,12.10
2023-12-21T19:56:54.656Z,12.00
2023-12-21T19:59:23.163Z,11.90
2023-12-21T20:01:51.775Z,12.00
2023-12-21T20:04:20.669Z,11.90
2023-12-21T20:06:51.721Z,11.90
2023-12-21T20:09:20.382Z,11.90
2023-12-21T20:11:48.939Z,12.20
2023-12-21T20:14:17.397Z,12.00
2023-12-21T20:16:46.584Z,12.00
2023-12-21T20:19:15.156Z,12.00
2023-12-21T20:21:45.669Z,11.90
2023-12-21T20:24:15.690Z,11.90
2023-12-21T20:26:44.119Z,12.10
2023-12-21T20:29:15.552Z,12.10
2023-12-21T20:31:43.185Z,12.00
2023-12-21T20:34:13.575Z,12.00
2023-12-21T20:36:42.294Z,12.00
2023-12-21T20:39:10.836Z,12.10
2023-12-21T20:41:40.559Z,11.90
2023-12-21T20:44:10.122Z,12.10
2023-12-21T20:46:38.873Z,12.20
2023-12-21T20:49:07.377Z,11.90
2023-12-21T20:51:35.776Z,12.00
2023-12-21T20:54:04.351Z,12.00
2023-12-21T20:56:32.784Z,12.10
2023-12-21T20:59:02.448Z,11.90
2023-12-21T21:01:31.140Z,11.90
2023-12-21T21:03:59.718Z,11.80
2023-12-21T21:06:28.349Z,11.70
2023-12-21T21:08:57.153Z,11.80
2023-12-21T21:11:26.812Z,11.60
2023-12-21T21:13:55.408Z,11.70
2023-12-21T21:16:26.933Z,11.80
2023-12-21T21:18:55.537Z,11.80
2023-12-21T21:21:24.019Z,11.90
2023-12-21T21:23:52.461Z,12.00
2023-12-21T21:26:21.675Z,12.00
2023-12-21T21:28:50.231Z,11.80
2023-12-21T21:31:19.054Z,12.00
2023-12-21T21:33:50.167Z,12.10
2023-12-21T21:36:20.352Z,12.00
2023-12-21T21:38:48.788Z,11.90
2023-12-21T21:41:17.624Z,11.80
2023-12-21T21:43:46.374Z,11.80
2023-12-21T21:46:14.929Z,11.70
2023-12-21T21:48:43.992Z,11.90
2023-12-21T21:51:16.309Z,11.70
2023-12-21T21:53:46.811Z,11.80
2023-12-21T21:56:19.587Z,11.90
2023-12-21T21:58:48.471Z,11.70
2023-12-21T22:01:17.290Z,11.80
2023-12-21T22:03:46.841Z,11.90
2023-12-21T22:06:16.956Z,12.00
2023-12-21T22:08:45.485Z,11.90
2023-12-21T22:11:13.934Z,11.80
2023-12-21T22:13:42.555Z,12.00
2023-12-21T22:16:11.653Z,12.00
2023-12-21T22:18:40.218Z,12.00
2023-12-21T22:21:09.803Z,11.80
2023-12-21T22:23:39.621Z,11.90
2023-12-21T22:26:09.003Z,11.80
2023-12-21T22:28:37.732Z,11.70
2023-12-21T22:31:06.410Z,11.80
2023-12-21T22:33:34.983Z,11.70
2023-12-21T22:36:03.998Z,11.70
2023-12-21T22:38:33.251Z,11.70
2023-12-21T22:41:03.026Z,11.80
2023-12-21T22:43:39.614Z,11.80
2023-12-21T22:46:11.558Z,11.80
2023-12-21T22:48:40.262Z,11.80
2023-12-21T22:51:08.887Z,11.80
2023-12-21T22:53:37.269Z,11.60
2023-12-21T22:56:07.249Z,11.70
2023-12-21T22:58:35.681Z,11.60
2023-12-21T23:01:04.321Z,11.50
2023-12-21T23:03:32.728Z,11.20
2023-12-21T23:06:01.288Z,11.20
2023-12-21T23:08:30.112Z,11.30
2023-12-21T23:10:58.637Z,11.20
2023-12-21T23:13:29.570Z,11.30
2023-12-21T23:15:58.106Z,11.20
2023-12-21T23:18:26.908Z,11.30
2023-12-21T23:20:55.367Z,11.20
2023-12-21T23:23:24.342Z,11.30
2023-12-21T23:25:53.026Z,11.40
2023-12-21T23:28:21.583Z,11.60
2023-12-21T23:30:53.188Z,11.50
2023-12-21T23:33:22.940Z,11.60
2023-12-21T23:35:51.984Z,11.50
2023-12-21T23:38:20.454Z,11.40
2023-12-21T23:40:49.062Z,11.50
2023-12-21T23:43:17.559Z,11.40
2023-12-21T23:45:47.979Z,11.40
2023-12-21T23:48:18.163Z,11.50
2023-12-21T23:50:46.610Z,11.70
2023-12-21T23:53:15.140Z,11.50
2023-12-21T23:55:43.504Z,11.60
2023-12-21T23:58:12.345Z,11.40
